Time;durP1;ratioP1;P1;durP2;ratioP2;P2;SDS_P1;SDS_P2;PMS_P1;PMS_P2;Temp;Humidity;BMP_temperature;BMP_pressure;BME280_temperature;BME280_humidity;BME280_pressure;Samples;Min_cycle;Max_cycle;Signal;HPM_P1;HPM_P2
2022/06/22 00:00:51;;;;;;;1.13;1.00;;;24.10;67.40;;;;;;6275799;28;20150;-48
2022/06/22 00:03:59;;;;;;;1.10;1.00;;;24.00;67.30;;;;;;6279133;28;21018;-49
2022/06/22 00:07:06;;;;;;;1.20;1.10;;;24.00;67.10;;;;;;6272876;28;20040;-50
2022/06/22 00:10:15;;;;;;;1.02;0.98;;;24.20;67.10;;;;;;6278277;28;20151;-47
2022/06/22 00:13:19;;;;;;;1.35;1.25;;;24.00;66.90;;;;;;6276308;28;20130;-47
2022/06/22 00:16:26;;;;;;;1.50;1.40;;;24.00;66.80;;;;;;6279777;28;20055;-50
2022/06/22 00:19:31;;;;;;;1.10;0.90;;;24.00;66.70;;;;;;6269146;28;20110;-47
2022/06/22 00:22:47;;;;;;;1.20;1.10;;;24.00;66.70;;;;;;6274374;28;20087;-47
2022/06/22 00:25:49;;;;;;;1.27;1.17;;;24.00;66.50;;;;;;6276915;28;20151;-50
2022/06/22 00:28:55;;;;;;;1.33;1.08;;;24.00;66.50;;;;;;6281021;28;20039;-51
2022/06/22 00:32:02;;;;;;;1.38;1.27;;;24.00;66.30;;;;;;6282340;28;20036;-48
2022/06/22 00:35:29;;;;;;;1.25;1.15;;;23.90;66.10;;;;;;6281132;28;20032;-50
2022/06/22 00:38:32;;;;;;;1.10;1.00;;;23.90;65.80;;;;;;6286636;28;20044;-50
2022/06/22 00:41:34;;;;;;;1.20;1.10;;;23.90;65.70;;;;;;6277751;28;20032;-50
2022/06/22 00:44:35;;;;;;;1.33;1.23;;;24.00;65.70;;;;;;6281145;28;20035;-47
2022/06/22 00:47:43;;;;;;;1.15;1.05;;;24.00;65.40;;;;;;6283388;28;20078;-48
2022/06/22 00:50:48;;;;;;;1.42;1.33;;;23.90;65.20;;;;;;6281439;28;20154;-47
2022/06/22 00:53:55;;;;;;;1.30;1.20;;;24.00;65.10;;;;;;6279006;28;20090;-49
2022/06/22 00:57:06;;;;;;;1.10;1.10;;;23.90;65.60;;;;;;6280535;28;20785;-50
2022/06/22 01:00:16;;;;;;;1.35;1.02;;;24.00;64.90;;;;;;6282775;28;20121;-46
2022/06/22 01:03:21;;;;;;;1.17;1.08;;;24.00;64.70;;;;;;6279809;28;20264;-46
2022/06/22 01:06:32;;;;;;;1.10;1.00;;;24.00;64.70;;;;;;6280887;28;20106;-50
2022/06/22 01:09:41;;;;;;;1.17;1.08;;;23.90;64.50;;;;;;6281095;28;20197;-46
2022/06/22 01:12:47;;;;;;;1.05;0.95;;;23.90;64.40;;;;;;6279783;28;20080;-47
2022/06/22 01:15:54;;;;;;;1.33;1.10;;;23.90;64.40;;;;;;6276923;28;20337;-48
2022/06/22 01:19:02;;;;;;;1.33;1.10;;;23.90;64.30;;;;;;6281746;28;20036;-46
2022/06/22 01:22:23;;;;;;;1.10;1.00;;;23.90;64.20;;;;;;6283114;28;20277;-46
2022/06/22 01:25:42;;;;;;;1.10;1.00;;;23.80;64.10;;;;;;6282317;28;20055;-49
2022/06/22 01:28:52;;;;;;;1.10;0.85;;;23.90;64.10;;;;;;6278462;28;20139;-46
2022/06/22 01:31:57;;;;;;;1.30;1.20;;;23.90;64.00;;;;;;6276005;28;20043;-47
2022/06/22 01:35:02;;;;;;;1.10;1.00;;;23.80;64.00;;;;;;6281484;28;20032;-46
2022/06/22 01:38:13;;;;;;;1.10;1.00;;;23.80;63.90;;;;;;6281414;28;20101;-45
2022/06/22 01:41:27;;;;;;;1.10;1.00;;;23.90;63.90;;;;;;6282463;28;20971;-51
2022/06/22 01:44:36;;;;;;;1.10;1.00;;;23.80;63.70;;;;;;6278908;28;21117;-50
2022/06/22 01:47:41;;;;;;;1.67;1.00;;;23.70;63.60;;;;;;6281682;28;20770;-48
2022/06/22 01:50:48;;;;;;;0.82;0.82;;;23.80;63.60;;;;;;6279560;28;21270;-49
2022/06/22 01:53:54;;;;;;;0.98;0.90;;;23.90;63.60;;;;;;6286568;28;20047;-48
2022/06/22 01:57:03;;;;;;;1.00;0.90;;;23.80;63.40;;;;;;6286232;28;20138;-46
2022/06/22 02:00:10;;;;;;;1.08;0.98;;;23.80;63.30;;;;;;6287489;28;20047;-50
2022/06/22 02:03:21;;;;;;;1.23;1.13;;;23.90;63.30;;;;;;6278043;28;20061;-49
2022/06/22 02:09:55;;;;;;;1.02;0.90;;;24.00;63.20;;;;;;6282307;28;20054;-49
2022/06/22 02:13:04;;;;;;;1.20;1.10;;;23.90;63.10;;;;;;6278601;28;20106;-49
2022/06/22 02:16:13;;;;;;;1.13;1.02;;;23.90;63.00;;;;;;6282823;28;20054;-47
2022/06/22 02:19:18;;;;;;;1.20;1.00;;;23.90;63.00;;;;;;6281459;28;20032;-51
2022/06/22 02:22:19;;;;;;;1.10;1.00;;;23.90;62.90;;;;;;6281356;28;20879;-49
2022/06/22 02:25:23;;;;;;;1.10;0.85;;;23.90;62.80;;;;;;6283705;28;20035;-46
2022/06/22 02:28:25;;;;;;;1.05;0.90;;;23.90;62.70;;;;;;6280706;28;20113;-51
2022/06/22 02:31:29;;;;;;;1.05;0.98;;;23.90;62.70;;;;;;6283686;28;20106;-49
2022/06/22 02:34:32;;;;;;;1.15;0.93;;;23.90;62.70;;;;;;6281498;28;20273;-46
2022/06/22 02:37:40;;;;;;;1.10;1.00;;;23.80;62.50;;;;;;6281351;28;21162;-45
2022/06/22 02:47:31;;;;;;;1.10;1.00;;;23.90;63.00;;;;;;6279727;28;20086;-46
2022/06/22 02:50:40;;;;;;;1.10;1.00;;;23.90;62.30;;;;;;6284722;28;20151;-48
2022/06/22 02:53:43;;;;;;;1.00;0.90;;;23.90;62.20;;;;;;6283820;28;20040;-47
2022/06/22 02:56:48;;;;;;;0.82;0.82;;;23.90;62.10;;;;;;6283694;28;20043;-46
2022/06/22 02:59:50;;;;;;;1.20;1.10;;;24.00;62.20;;;;;;6284430;28;20044;-48
2022/06/22 03:02:56;;;;;;;1.13;1.02;;;24.10;62.20;;;;;;6285514;28;20863;-46
2022/06/22 03:05:58;;;;;;;1.10;1.00;;;23.90;62.00;;;;;;6279180;28;20200;-45
2022/06/22 03:09:03;;;;;;;1.30;1.00;;;23.90;62.00;;;;;;6289308;28;20600;-47
2022/06/22 03:12:05;;;;;;;1.23;0.98;;;24.00;62.00;;;;;;6281611;28;20502;-48
2022/06/22 03:15:13;;;;;;;3.20;1.17;;;23.90;61.90;;;;;;6287132;28;20143;-46
2022/06/22 03:18:23;;;;;;;2.20;1.30;;;24.00;62.10;;;;;;6285222;28;20110;-47
2022/06/22 03:21:25;;;;;;;1.20;1.10;;;24.00;62.10;;;;;;6281012;28;20040;-46
2022/06/22 03:24:37;;;;;;;1.30;0.90;;;23.90;62.20;;;;;;6281462;28;20545;-49
2022/06/22 03:27:44;;;;;;;1.40;0.95;;;23.90;62.30;;;;;;6285557;28;20051;-48
2022/06/22 03:30:52;;;;;;;1.38;1.15;;;23.90;62.30;;;;;;6279831;28;21409;-48
2022/06/22 03:34:00;;;;;;;2.35;1.20;;;23.90;62.30;;;;;;6281046;28;20065;-46
2022/06/22 03:37:06;;;;;;;1.88;1.20;;;24.00;62.30;;;;;;6279295;28;20117;-47
2022/06/22 03:40:13;;;;;;;1.85;1.00;;;23.90;62.30;;;;;;6274808;28;21065;-48
2022/06/22 03:43:21;;;;;;;1.33;1.10;;;23.90;62.30;;;;;;6282254;28;20198;-51
2022/06/22 03:46:27;;;;;;;1.40;0.93;;;23.90;62.20;;;;;;6283749;28;20142;-48
2022/06/22 03:49:34;;;;;;;1.58;1.38;;;23.90;62.10;;;;;;6281787;28;20043;-47
2022/06/22 03:52:43;;;;;;;1.25;1.15;;;23.90;62.10;;;;;;6281776;28;20040;-52
2022/06/22 03:55:48;;;;;;;0.95;0.90;;;23.90;62.10;;;;;;6279919;28;20197;-49
2022/06/22 03:58:51;;;;;;;1.33;1.02;;;23.90;62.10;;;;;;6279082;28;21530;-47
2022/06/22 04:01:55;;;;;;;0.90;0.90;;;23.90;62.10;;;;;;6278729;28;20944;-53
2022/06/22 04:04:59;;;;;;;1.10;0.90;;;23.90;62.00;;;;;;6273228;28;20850;-46
2022/06/22 04:08:01;;;;;;;1.20;1.10;;;23.90;62.00;;;;;;6277603;28;20376;-49
2022/06/22 04:11:09;;;;;;;1.10;0.93;;;24.10;62.10;;;;;;6279297;28;20036;-49
2022/06/22 04:14:14;;;;;;;1.60;1.17;;;23.90;61.90;;;;;;6277955;28;20576;-46
2022/06/22 04:17:21;;;;;;;1.10;1.00;;;23.90;61.90;;;;;;6278391;28;20393;-51
2022/06/22 04:20:49;;;;;;;1.40;1.05;;;23.90;61.80;;;;;;6282193;28;20077;-52
2022/06/22 04:23:54;;;;;;;1.05;0.90;;;23.80;61.80;;;;;;6266879;28;20446;-46
2022/06/22 04:27:04;;;;;;;1.20;1.10;;;24.00;61.80;;;;;;6280515;28;20233;-48
2022/06/22 04:30:12;;;;;;;1.10;1.00;;;23.90;61.80;;;;;;6284087;28;20075;-49
2022/06/22 04:33:18;;;;;;;1.00;0.90;;;23.80;61.60;;;;;;6280835;28;20135;-49
2022/06/22 04:36:25;;;;;;;1.10;0.95;;;23.90;61.60;;;;;;6279362;28;20051;-49
2022/06/22 04:39:32;;;;;;;1.10;0.93;;;23.80;61.60;;;;;;6283608;28;20036;-51
2022/06/22 04:42:34;;;;;;;1.35;1.08;;;23.80;61.60;;;;;;6282095;28;20118;-51
2022/06/22 04:45:42;;;;;;;1.05;0.90;;;23.90;61.60;;;;;;6283238;28;20079;-49
2022/06/22 04:48:48;;;;;;;1.15;1.05;;;23.70;61.40;;;;;;6279989;28;20036;-46
2022/06/22 04:51:54;;;;;;;1.08;0.90;;;23.90;61.50;;;;;;6277643;28;20048;-50
2022/06/22 04:54:59;;;;;;;0.88;0.88;;;23.90;61.50;;;;;;6276893;28;20163;-51
2022/06/22 04:58:04;;;;;;;1.10;1.00;;;23.90;61.50;;;;;;6278411;28;20150;-48
2022/06/22 05:01:06;;;;;;;1.65;1.23;;;23.90;61.50;;;;;;6277920;28;20311;-50
2022/06/22 05:04:14;;;;;;;1.27;1.17;;;23.80;61.40;;;;;;6279000;28;20039;-47
2022/06/22 05:07:30;;;;;;;1.55;1.20;;;23.90;61.40;;;;;;6282235;28;20079;-49
2022/06/22 05:10:41;;;;;;;1.17;1.08;;;23.90;61.40;;;;;;6282304;28;20074;-50
2022/06/22 05:13:45;;;;;;;1.40;1.10;;;23.90;61.30;;;;;;6279451;28;20071;-51
2022/06/22 05:16:52;;;;;;;1.10;1.00;;;23.90;61.30;;;;;;6278317;28;20799;-47
2022/06/22 05:19:59;;;;;;;1.20;1.10;;;23.90;61.30;;;;;;6263922;28;20027;-50
2022/06/22 05:23:04;;;;;;;1.67;1.38;;;23.80;61.20;;;;;;6282807;28;20182;-48
2022/06/22 05:26:08;;;;;;;1.20;1.10;;;24.00;61.30;;;;;;6281466;28;20052;-51
2022/06/22 05:29:15;;;;;;;1.10;1.00;;;23.90;61.30;;;;;;6277393;28;20515;-48
2022/06/22 05:32:26;;;;;;;1.33;1.10;;;23.90;61.30;;;;;;6274010;28;20086;-48
2022/06/22 05:35:33;;;;;;;1.30;1.10;;;23.90;61.30;;;;;;6276594;28;20044;-51
2022/06/22 05:38:40;;;;;;;1.23;1.13;;;23.90;61.30;;;;;;6279319;28;20635;-46
2022/06/22 05:41:45;;;;;;;1.13;1.02;;;23.90;61.50;;;;;;6274863;28;20052;-51
2022/06/22 05:44:47;;;;;;;1.30;1.20;;;24.00;61.30;;;;;;6271211;28;20040;-48
2022/06/22 05:47:49;;;;;;;1.15;1.02;;;24.00;61.30;;;;;;6276518;28;20196;-49
2022/06/22 05:50:56;;;;;;;1.60;1.08;;;24.00;61.40;;;;;;6270899;28;20051;-50
2022/06/22 05:54:02;;;;;;;1.48;1.17;;;24.00;61.30;;;;;;6271326;28;20151;-46
2022/06/22 05:57:17;;;;;;;1.10;1.00;;;24.00;61.30;;;;;;6266186;28;20051;-49
2022/06/22 06:00:23;;;;;;;1.30;1.20;;;24.00;61.30;;;;;;6262691;28;20036;-49
2022/06/22 06:03:35;;;;;;;0.80;0.80;;;23.90;61.20;;;;;;6259841;28;20043;-51
2022/06/22 06:06:40;;;;;;;1.00;0.90;;;24.00;61.20;;;;;;6266063;28;20615;-48
2022/06/22 06:09:42;;;;;;;0.93;0.90;;;24.00;61.20;;;;;;6262477;28;20078;-51
2022/06/22 06:12:53;;;;;;;1.00;0.90;;;24.00;61.20;;;;;;6261647;28;20082;-48
2022/06/22 06:15:58;;;;;;;1.15;0.80;;;23.70;61.00;;;;;;6257090;28;20240;-46
2022/06/22 06:19:08;;;;;;;1.00;0.90;;;24.20;61.40;;;;;;6259600;28;20100;-47
2022/06/22 06:22:11;;;;;;;1.20;1.10;;;24.10;61.20;;;;;;6249364;28;20040;-45
2022/06/22 06:28:40;;;;;;;1.23;0.80;;;24.10;61.20;;;;;;6250419;28;20052;-47
2022/06/22 06:31:57;;;;;;;4.07;1.77;;;24.10;61.20;;;;;;6245260;28;20039;-47
2022/06/22 06:35:04;;;;;;;1.85;1.40;;;24.10;61.20;;;;;;6222094;28;20039;-47
2022/06/22 06:38:17;;;;;;;4.95;3.25;;;24.20;61.40;;;;;;6217614;28;20052;-50
2022/06/22 06:41:24;;;;;;;6.05;3.40;;;24.10;61.60;;;;;;6217884;28;20048;-44
2022/06/22 06:44:26;;;;;;;5.47;3.03;;;24.10;61.70;;;;;;6196116;28;20047;-50
2022/06/22 06:47:33;;;;;;;7.25;3.25;;;24.00;61.80;;;;;;6202334;28;20048;-48
2022/06/22 06:50:39;;;;;;;7.93;3.63;;;24.00;62.00;;;;;;6174891;28;20044;-44
2022/06/22 06:53:45;;;;;;;5.03;2.95;;;23.90;62.10;;;;;;6155463;28;20047;-44
2022/06/22 06:56:52;;;;;;;4.00;3.50;;;24.00;62.10;;;;;;6105441;28;20042;-49
2022/06/22 06:59:56;;;;;;;10.20;3.53;;;23.90;62.00;;;;;;6134654;28;20067;-45
2022/06/22 07:02:59;;;;;;;4.93;3.30;;;24.10;62.00;;;;;;6096940;28;20063;-44
2022/06/22 07:06:03;;;;;;;4.85;2.80;;;23.90;61.80;;;;;;6065191;28;20035;-48
2022/06/22 07:09:12;;;;;;;5.22;3.00;;;24.00;62.10;;;;;;6064196;28;20296;-51
2022/06/22 07:12:36;;;;;;;5.95;3.45;;;23.90;61.60;;;;;;6054875;28;20048;-51
2022/06/22 07:15:41;;;;;;;4.72;2.85;;;24.00;61.40;;;;;;6079102;28;20337;-45
2022/06/22 07:18:48;;;;;;;4.47;3.00;;;24.00;61.50;;;;;;6113569;28;20041;-45
2022/06/22 07:21:55;;;;;;;3.33;2.88;;;24.00;61.40;;;;;;6117180;28;20051;-45
2022/06/22 07:25:02;;;;;;;2.83;2.53;;;24.00;61.40;;;;;;6113266;28;20116;-46
2022/06/22 07:28:12;;;;;;;2.63;1.98;;;24.00;61.30;;;;;;6059333;28;20048;-45
2022/06/22 07:31:20;;;;;;;4.78;2.20;;;24.00;61.30;;;;;;6024510;28;20236;-46
2022/06/22 07:34:27;;;;;;;6.15;2.50;;;24.20;61.30;;;;;;5945073;28;20047;-46
2022/06/22 07:37:33;;;;;;;5.00;2.38;;;24.10;60.80;;;;;;6046623;28;20047;-54
2022/06/22 07:40:38;;;;;;;4.50;2.40;;;24.30;61.20;;;;;;6050600;28;20048;-44
2022/06/22 07:43:41;;;;;;;5.18;2.45;;;24.10;61.10;;;;;;6080797;28;20043;-43
2022/06/22 07:46:47;;;;;;;4.88;2.78;;;24.20;60.90;;;;;;6091755;28;20044;-44
2022/06/22 07:49:53;;;;;;;5.32;2.30;;;24.20;60.80;;;;;;6075903;28;20226;-47
2022/06/22 07:53:01;;;;;;;3.70;2.65;;;24.20;60.70;;;;;;6071963;28;20895;-47
2022/06/22 07:56:10;;;;;;;4.22;2.60;;;24.10;60.70;;;;;;6086083;28;20166;-44
2022/06/22 07:59:16;;;;;;;5.40;2.60;;;24.20;60.50;;;;;;6093218;28;20091;-44
2022/06/22 08:02:21;;;;;;;4.05;2.40;;;24.30;60.40;;;;;;6051348;28;20048;-43
2022/06/22 08:05:26;;;;;;;5.47;2.40;;;24.20;60.30;;;;;;6044097;27;20031;-47
2022/06/22 08:08:33;;;;;;;5.72;2.47;;;24.30;60.20;;;;;;6053897;28;22851;-46
2022/06/22 08:11:38;;;;;;;5.20;3.15;;;24.20;60.10;;;;;;6048179;28;20054;-43
2022/06/22 08:14:44;;;;;;;6.05;3.13;;;24.30;60.10;;;;;;6053247;28;22581;-44
2022/06/22 08:17:50;;;;;;;5.55;2.72;;;24.30;60.00;;;;;;6047194;28;21975;-44
2022/06/22 08:20:53;;;;;;;4.72;2.70;;;24.30;60.00;;;;;;6094756;28;20211;-46
2022/06/22 08:23:56;;;;;;;3.63;2.47;;;24.20;60.00;;;;;;6104066;28;20036;-45
2022/06/22 08:27:00;;;;;;;3.17;2.40;;;24.10;59.90;;;;;;6102055;28;20127;-48
2022/06/22 08:30:03;;;;;;;2.85;2.13;;;24.30;60.00;;;;;;6068526;28;20062;-46
2022/06/22 08:33:07;;;;;;;4.50;2.28;;;24.40;59.90;;;;;;6057125;28;20162;-50
2022/06/22 08:36:14;;;;;;;2.95;1.58;;;24.40;59.70;;;;;;6089802;28;21686;-49
2022/06/22 08:39:22;;;;;;;3.08;2.10;;;24.40;59.80;;;;;;6085875;27;20036;-45
2022/06/22 08:42:35;;;;;;;2.33;2.00;;;24.50;59.60;;;;;;6075869;28;21322;-46
2022/06/22 08:46:00;;;;;;;3.00;1.70;;;24.50;59.60;;;;;;6074090;28;20050;-45
2022/06/22 08:49:16;;;;;;;3.15;1.70;;;24.50;59.50;;;;;;6081171;28;20082;-47
2022/06/22 08:52:31;;;;;;;4.18;2.25;;;24.60;59.60;;;;;;6068570;28;20040;-47
2022/06/22 08:56:04;;;;;;;3.58;2.55;;;24.50;60.20;;;;;;6065984;28;20040;-48
2022/06/22 08:59:23;;;;;;;2.33;1.85;;;24.60;59.80;;;;;;6057613;28;20044;-44
2022/06/22 09:02:46;;;;;;;2.90;2.50;;;24.50;59.90;;;;;;6053711;28;21460;-48
2022/06/22 09:06:01;;;;;;;2.08;1.70;;;24.60;60.10;;;;;;6058393;28;23166;-49
2022/06/22 09:09:26;;;;;;;1.80;1.20;;;24.70;60.20;;;;;;6100787;28;21267;-48
2022/06/22 09:12:39;;;;;;;2.50;1.75;;;24.60;60.20;;;;;;6081687;28;20135;-46
2022/06/22 09:15:55;;;;;;;1.48;1.27;;;24.70;60.30;;;;;;6059624;28;21937;-44
2022/06/22 09:19:16;;;;;;;2.03;1.60;;;24.70;60.40;;;;;;6014138;28;20806;-44
2022/06/22 09:22:23;;;;;;;1.83;1.27;;;24.70;60.60;;;;;;6069161;28;20043;-49
2022/06/22 09:25:29;;;;;;;1.80;1.45;;;24.70;60.50;;;;;;6054964;28;20043;-48
2022/06/22 09:28:44;;;;;;;1.45;1.20;;;24.60;60.50;;;;;;6076456;28;20055;-46
2022/06/22 09:32:13;;;;;;;2.33;1.48;;;24.70;61.20;;;;;;6062486;28;20043;-46
2022/06/22 09:35:43;;;;;;;1.60;1.40;;;24.70;60.50;;;;;;6069547;28;20084;-46
2022/06/22 09:39:04;;;;;;;1.50;1.25;;;24.90;60.70;;;;;;6084901;28;20042;-44
2022/06/22 09:42:21;;;;;;;1.20;1.10;;;24.80;60.70;;;;;;6073338;28;20260;-43
2022/06/22 09:45:41;;;;;;;2.13;1.15;;;24.90;60.80;;;;;;6069341;28;20113;-48
2022/06/22 09:49:09;;;;;;;1.70;1.10;;;24.70;60.70;;;;;;6081045;27;20047;-44
2022/06/22 09:52:27;;;;;;;1.73;0.80;;;24.70;60.90;;;;;;6103553;28;20137;-49
2022/06/22 09:59:24;;;;;;;0.80;0.80;;;24.80;61.10;;;;;;6067943;28;20214;-44
2022/06/22 10:02:50;;;;;;;1.25;0.90;;;24.90;61.30;;;;;;6058224;28;20047;-47
2022/06/22 10:06:15;;;;;;;1.20;1.10;;;24.80;61.30;;;;;;6062738;28;20044;-45
2022/06/22 10:09:34;;;;;;;1.38;1.00;;;24.80;61.30;;;;;;6049309;28;20098;-44
2022/06/22 10:13:22;;;;;;;0.95;0.90;;;24.80;61.40;;;;;;6028665;28;24313;-45
2022/06/22 10:16:37;;;;;;;1.23;1.13;;;24.90;61.50;;;;;;6064294;28;20043;-43
2022/06/22 10:19:57;;;;;;;2.75;1.00;;;24.80;61.40;;;;;;6063289;28;20083;-45
2022/06/22 10:23:10;;;;;;;1.63;0.90;;;24.80;61.50;;;;;;6093838;28;20075;-46
2022/06/22 10:26:27;;;;;;;1.88;0.80;;;24.80;61.50;;;;;;6134206;28;20079;-46
2022/06/22 10:29:51;;;;;;;1.08;0.90;;;24.80;61.50;;;;;;6120057;28;20046;-45
2022/06/22 10:33:16;;;;;;;0.88;0.88;;;24.80;61.60;;;;;;6034965;28;27263;-46
2022/06/22 10:36:30;;;;;;;1.15;0.95;;;24.70;61.60;;;;;;6127425;28;20860;-47
2022/06/22 10:39:53;;;;;;;1.10;0.80;;;24.90;61.80;;;;;;6107180;28;20347;-47
2022/06/22 10:46:22;;;;;;;1.00;0.90;;;24.80;61.80;;;;;;6130780;28;20718;-44
2022/06/22 10:49:39;;;;;;;0.70;0.70;;;24.70;61.80;;;;;;6142105;28;20880;-46
2022/06/22 10:53:02;;;;;;;1.00;0.90;;;24.90;61.90;;;;;;6141073;28;20054;-48
2022/06/22 10:56:49;;;;;;;1.20;1.10;;;24.60;61.80;;;;;;6151299;28;20048;-44
2022/06/22 11:00:08;;;;;;;1.27;0.90;;;24.90;61.90;;;;;;6194045;28;20072;-46
2022/06/22 11:03:36;;;;;;;0.70;0.70;;;24.80;61.80;;;;;;6186239;28;20043;-43
2022/06/22 11:06:55;;;;;;;1.00;0.85;;;24.80;61.80;;;;;;6186082;28;20048;-47
2022/06/22 11:10:14;;;;;;;1.00;0.90;;;24.90;61.90;;;;;;6191541;28;21563;-48
2022/06/22 11:13:37;;;;;;;1.08;0.98;;;24.70;61.80;;;;;;6209377;28;20051;-47
2022/06/22 11:16:49;;;;;;;1.05;0.90;;;24.80;61.90;;;;;;6179814;28;20113;-44
2022/06/22 11:20:10;;;;;;;0.95;0.85;;;24.80;62.00;;;;;;6179411;28;20048;-46
2022/06/22 11:23:17;;;;;;;1.08;0.95;;;24.80;62.00;;;;;;6152678;28;20035;-47
2022/06/22 11:33:38;;;;;;;1.23;1.13;;;24.90;62.10;;;;;;6147108;28;20172;-45
2022/06/22 11:36:47;;;;;;;1.15;1.08;;;24.80;62.10;;;;;;6175918;28;20051;-48
2022/06/22 11:40:32;;;;;;;1.27;1.00;;;24.80;62.10;;;;;;6174182;28;20204;-48
2022/06/22 11:43:51;;;;;;;1.58;1.00;;;24.90;62.10;;;;;;6149997;28;29483;-44
2022/06/22 11:46:55;;;;;;;1.33;1.10;;;24.90;62.10;;;;;;6153913;28;20051;-46
2022/06/22 11:50:06;;;;;;;0.85;0.82;;;24.90;62.10;;;;;;6146636;28;21002;-44
2022/06/22 11:53:16;;;;;;;;;;;24.70;62.00;;;;;;6101596;28;20074;-43
2022/06/22 11:56:32;;;;;;;1.20;1.00;;;24.90;62.10;;;;;;6147066;27;20001;-49
2022/06/22 11:59:55;;;;;;;1.10;0.98;;;24.90;62.00;;;;;;6111492;28;20082;-44
2022/06/22 12:03:22;;;;;;;1.20;1.10;;;24.90;62.10;;;;;;6076280;28;21202;-43
2022/06/22 12:06:38;;;;;;;1.17;1.08;;;24.90;62.10;;;;;;6086077;27;20162;-46
2022/06/22 12:09:56;;;;;;;1.45;1.00;;;24.90;62.20;;;;;;6078908;28;21530;-45
2022/06/22 12:13:10;;;;;;;1.00;1.00;;;24.90;62.30;;;;;;6084498;28;20039;-44
2022/06/22 12:16:23;;;;;;;1.13;1.02;;;24.90;62.40;;;;;;6100841;28;20204;-45
2022/06/22 12:19:35;;;;;;;1.20;1.10;;;24.90;62.40;;;;;;6088410;28;20050;-45
2022/06/22 12:22:47;;;;;;;2.22;1.17;;;24.80;62.40;;;;;;6086804;28;20048;-44
2022/06/22 12:26:04;;;;;;;1.10;1.00;;;25.00;62.60;;;;;;6087658;28;23562;-44
2022/06/22 12:29:25;;;;;;;1.20;1.10;;;24.90;62.60;;;;;;6069377;28;21347;-44
2022/06/22 12:32:33;;;;;;;1.83;1.05;;;24.80;62.50;;;;;;6072917;28;20047;-47
2022/06/22 12:35:42;;;;;;;1.05;0.95;;;24.90;62.60;;;;;;6045006;28;20043;-44
2022/06/22 12:38:50;;;;;;;1.15;1.05;;;24.90;62.60;;;;;;6088394;28;21291;-43
2022/06/22 12:42:33;;;;;;;1.20;1.10;;;24.90;62.50;;;;;;6080925;28;20082;-45
2022/06/22 12:45:51;;;;;;;1.20;1.10;;;24.90;62.60;;;;;;6102025;28;21946;-44
2022/06/22 12:49:15;;;;;;;1.25;1.15;;;24.90;62.60;;;;;;6089833;28;20100;-47
2022/06/22 12:52:21;;;;;;;1.10;0.90;;;24.80;62.50;;;;;;6084294;28;20099;-48
2022/06/22 12:55:29;;;;;;;1.30;1.20;;;24.90;62.60;;;;;;6067207;28;20281;-46
2022/06/22 12:58:39;;;;;;;1.05;0.93;;;24.90;62.50;;;;;;6055931;28;20090;-44
2022/06/22 13:01:42;;;;;;;1.20;1.10;;;24.80;62.40;;;;;;6039786;28;20190;-48
2022/06/22 13:04:47;;;;;;;0.88;0.88;;;24.90;62.40;;;;;;6032178;28;30100;-44
2022/06/22 13:07:52;;;;;;;1.30;1.20;;;24.90;62.30;;;;;;6062647;28;23522;-45
2022/06/22 13:10:59;;;;;;;1.48;1.13;;;24.90;62.30;;;;;;6056132;28;20083;-46
2022/06/22 13:14:21;;;;;;;1.50;1.08;;;24.90;62.50;;;;;;6089658;28;20050;-45
2022/06/22 13:17:29;;;;;;;0.95;0.95;;;24.80;62.40;;;;;;6086606;28;20182;-45
2022/06/22 13:20:45;;;;;;;1.38;1.00;;;24.90;62.60;;;;;;6053478;27;31288;-46
2022/06/22 13:23:55;;;;;;;1.05;0.88;;;24.90;62.80;;;;;;6058704;28;28712;-45
2022/06/22 13:27:14;;;;;;;0.95;0.85;;;24.90;63.00;;;;;;6063013;28;20174;-44
2022/06/22 13:30:22;;;;;;;0.73;0.73;;;24.90;62.90;;;;;;6073872;28;23083;-44
2022/06/22 13:33:32;;;;;;;0.80;0.80;;;24.90;62.90;;;;;;6029965;28;20040;-43
2022/06/22 13:36:48;;;;;;;0.70;0.70;;;25.10;63.00;;;;;;6045249;28;20058;-46
2022/06/22 13:40:05;;;;;;;0.80;0.80;;;25.10;62.90;;;;;;6045559;28;20090;-44
2022/06/22 13:43:23;;;;;;;0.93;0.80;;;25.00;62.70;;;;;;6071172;28;20054;-44
2022/06/22 13:46:39;;;;;;;0.82;0.68;;;24.90;62.60;;;;;;6078019;28;20036;-44
2022/06/22 13:49:59;;;;;;;0.68;0.63;;;25.00;62.60;;;;;;6044512;28;30214;-51
2022/06/22 13:53:11;;;;;;;0.88;0.70;;;25.00;62.60;;;;;;6037164;28;27481;-46
2022/06/22 13:56:32;;;;;;;0.40;0.40;;;25.00;62.50;;;;;;6047917;28;20036;-48
2022/06/22 13:59:41;;;;;;;0.55;0.55;;;25.00;62.20;;;;;;6000751;28;32155;-44
2022/06/22 14:02:58;;;;;;;0.40;0.40;;;24.90;61.90;;;;;;6030477;28;20040;-44
2022/06/22 14:06:11;;;;;;;0.55;0.50;;;24.90;61.60;;;;;;6016257;28;21712;-45
2022/06/22 14:09:19;;;;;;;0.70;0.50;;;25.00;61.60;;;;;;6047984;28;20214;-46
2022/06/22 14:12:25;;;;;;;0.60;0.60;;;25.00;61.40;;;;;;6022535;28;20134;-44
2022/06/22 14:15:37;;;;;;;0.50;0.50;;;25.00;61.30;;;;;;5992798;28;20162;-45
2022/06/22 14:18:46;;;;;;;0.55;0.55;;;25.00;61.20;;;;;;6016146;28;20044;-43
2022/06/22 14:21:53;;;;;;;1.65;0.60;;;25.00;61.00;;;;;;6072978;28;20244;-45
2022/06/22 14:24:58;;;;;;;0.60;0.60;;;25.00;60.90;;;;;;6079061;28;20044;-45
2022/06/22 14:28:08;;;;;;;0.52;0.52;;;25.10;60.80;;;;;;6070267;28;22045;-44
2022/06/22 14:31:16;;;;;;;1.25;0.70;;;25.00;60.80;;;;;;6037046;28;20131;-43
2022/06/22 14:34:33;;;;;;;0.85;0.50;;;25.00;60.60;;;;;;6039581;28;20058;-46
2022/06/22 14:37:40;;;;;;;0.50;0.50;;;25.00;60.50;;;;;;6067233;28;22137;-44
2022/06/22 14:41:08;;;;;;;0.65;0.65;;;25.00;60.50;;;;;;6062670;28;20163;-46
2022/06/22 14:44:25;;;;;;;0.55;0.55;;;25.00;60.60;;;;;;6079152;28;20976;-44
2022/06/22 14:47:39;;;;;;;1.42;0.50;;;24.90;60.60;;;;;;6058579;28;20055;-44
2022/06/22 14:50:48;;;;;;;0.40;0.40;;;25.10;60.70;;;;;;6089102;28;20036;-45
2022/06/22 14:54:03;;;;;;;0.57;0.52;;;25.00;60.70;;;;;;6051606;28;20059;-43
2022/06/22 14:57:10;;;;;;;0.40;0.40;;;25.00;60.70;;;;;;6071695;28;20178;-44
2022/06/22 15:00:23;;;;;;;0.80;0.70;;;25.00;60.60;;;;;;6081147;28;20160;-46
2022/06/22 15:03:37;;;;;;;0.50;0.50;;;25.00;60.70;;;;;;6081356;28;21108;-49
2022/06/22 15:06:54;;;;;;;0.57;0.45;;;25.00;60.80;;;;;;6062939;28;20040;-45
2022/06/22 15:10:14;;;;;;;0.88;0.70;;;25.00;60.90;;;;;;6088123;28;20122;-45
2022/06/22 15:13:25;;;;;;;0.50;0.50;;;25.00;60.90;;;;;;6090647;28;20284;-49
2022/06/22 15:16:32;;;;;;;0.60;0.60;;;25.10;61.20;;;;;;6102331;28;20852;-45
2022/06/22 15:19:38;;;;;;;1.17;0.47;;;25.00;61.10;;;;;;6103456;28;20960;-49
2022/06/22 15:22:47;;;;;;;0.73;0.60;;;25.00;61.50;;;;;;6133085;28;20075;-45
2022/06/22 15:26:15;;;;;;;0.60;0.60;;;25.10;61.80;;;;;;6122035;28;20044;-43
2022/06/22 15:29:22;;;;;;;0.70;0.68;;;25.00;62.10;;;;;;6133088;28;20114;-48
2022/06/22 15:32:29;;;;;;;0.60;0.60;;;25.10;62.60;;;;;;6128452;28;20050;-44
2022/06/22 15:35:42;;;;;;;0.63;0.55;;;25.00;63.00;;;;;;6126010;28;20052;-45
2022/06/22 15:38:50;;;;;;;1.60;0.70;;;25.10;63.50;;;;;;6131928;28;20063;-45
2022/06/22 15:41:58;;;;;;;0.70;0.70;;;25.10;63.80;;;;;;6137775;28;20043;-47
2022/06/22 15:45:11;;;;;;;0.90;0.80;;;25.10;64.00;;;;;;6137565;28;21162;-45
2022/06/22 15:48:18;;;;;;;0.93;0.65;;;25.00;64.30;;;;;;6144894;28;20177;-46
2022/06/22 15:51:41;;;;;;;1.92;0.88;;;25.20;64.70;;;;;;6146114;28;20129;-47
2022/06/22 15:54:51;;;;;;;1.15;0.50;;;25.10;64.80;;;;;;6171512;28;20155;-47
2022/06/22 15:57:57;;;;;;;0.60;0.45;;;25.10;64.90;;;;;;6161815;28;20079;-46
2022/06/22 16:01:03;;;;;;;1.08;0.80;;;25.00;64.90;;;;;;6174236;28;20054;-48
2022/06/22 16:04:17;;;;;;;0.60;0.60;;;25.00;65.00;;;;;;6167637;28;20043;-44
2022/06/22 16:07:26;;;;;;;0.75;0.70;;;25.10;65.30;;;;;;6153238;28;21151;-44
2022/06/22 16:10:34;;;;;;;0.68;0.68;;;25.00;65.50;;;;;;6163067;28;20046;-44
2022/06/22 16:13:44;;;;;;;0.80;0.60;;;25.00;65.40;;;;;;6167987;28;20048;-46
2022/06/22 16:16:50;;;;;;;0.80;0.70;;;25.00;65.60;;;;;;6178398;28;22711;-43
2022/06/22 16:19:58;;;;;;;0.60;0.60;;;24.90;65.70;;;;;;6172429;28;20048;-47
2022/06/22 16:23:09;;;;;;;0.57;0.57;;;24.90;65.80;;;;;;6180123;28;20040;-46
2022/06/22 16:26:17;;;;;;;0.77;0.70;;;25.10;66.00;;;;;;6195693;28;20040;-45
2022/06/22 16:29:24;;;;;;;0.90;0.70;;;24.90;66.00;;;;;;6195876;28;20045;-47
2022/06/22 16:32:36;;;;;;;0.57;0.57;;;24.90;66.00;;;;;;6215630;28;20043;-48
2022/06/22 16:35:46;;;;;;;0.80;0.60;;;24.90;66.00;;;;;;6200908;28;20151;-47
2022/06/22 16:38:58;;;;;;;0.35;0.32;;;24.80;66.10;;;;;;6197373;28;20125;-47
2022/06/22 16:42:12;;;;;;;0.50;0.50;;;24.70;65.90;;;;;;6196428;28;20070;-48
2022/06/22 16:45:38;;;;;;;0.40;0.38;;;24.80;65.90;;;;;;6172841;28;20047;-44
2022/06/22 16:48:44;;;;;;;0.43;0.43;;;24.90;66.00;;;;;;6155104;28;20040;-45
2022/06/22 16:51:55;;;;;;;0.30;0.30;;;24.70;65.80;;;;;;6182536;27;21113;-46
2022/06/22 16:55:11;;;;;;;0.32;0.32;;;24.80;66.00;;;;;;6212659;28;20075;-46
2022/06/22 16:58:24;;;;;;;0.30;0.30;;;24.70;66.00;;;;;;6221359;28;20044;-48
2022/06/22 17:01:32;;;;;;;0.45;0.40;;;24.70;66.00;;;;;;6228136;28;20149;-47